KBFM/BFM METAR and TAF weather

Enter ICAO airport designator
Station Type Date Time Source
KBFM METAR 2023/02/05 23:53 UTC NOAA

KBFM 052353Z 22004KT 10SM CLR 17/09 A3018 RMK AO2 SLP218 T01720094 10206 20172 53010


Station Type Date Time Source
KBFM Decoded METAR 2023/02/05 23:53 UTC NOAA

MOBILE DOWNTOWN AIRPORT, AL, United States (KBFM) 30-38N 88-04W 20M
Feb 05, 2023 - 06:53 PM EST / 2023.02.05 2353 UTC
Wind: from the SW (220 degrees) at 5 MPH (4 KT):0
Visibility: 10 mile(s):0
Sky conditions: clear
Temperature: 63.0 F (17.2 C)
Dew Point: 48.9 F (9.4 C)
Relative Humidity: 60%
Pressure (altimeter): 30.18 in. Hg (1022 hPa)
Pressure tendency: 0.03 inches (1.0 hPa) higher than three hours ago
ob: KBFM 052353Z 22004KT 10SM CLR 17/09 A3018 RMK AO2 SLP218 T01720094 10206 20172 53010
cycle: 0

Station Type Date Time Source
KBFM TAF 2023/02/05 18:33 UTC NOAA

TAF KBFM 051730Z 0518/0618 05003KT P6SM SKC
FM052200 30005KT P6SM SKC
FM061100 01004KT P6SM SKC

Example: see airport list